createdAt,value
2023-03-12T00:00:08.739Z,15.90
2023-03-12T00:02:35.829Z,15.90
2023-03-12T00:05:03.613Z,15.90
2023-03-12T00:07:30.530Z,15.80
2023-03-12T00:09:57.524Z,15.80
2023-03-12T00:12:24.585Z,15.70
2023-03-12T00:14:51.529Z,15.70
2023-03-12T00:17:18.498Z,15.70
2023-03-12T00:19:45.520Z,15.70
2023-03-12T00:22:12.465Z,15.60
2023-03-12T00:24:39.419Z,15.60
2023-03-12T00:27:07.249Z,15.60
2023-03-12T00:29:34.221Z,15.60
2023-03-12T00:32:01.217Z,15.50
2023-03-12T00:34:28.229Z,15.50
2023-03-12T00:36:57.121Z,15.50
2023-03-12T00:39:24.045Z,15.50
2023-03-12T00:41:50.938Z,15.50
2023-03-12T00:44:17.913Z,15.50
2023-03-12T00:46:44.955Z,15.50
2023-03-12T00:49:12.280Z,15.50
2023-03-12T00:51:39.384Z,15.50
2023-03-12T00:54:06.292Z,15.50
2023-03-12T00:56:33.603Z,15.50
2023-03-12T00:59:00.651Z,15.50
2023-03-12T01:01:28.458Z,15.50
2023-03-12T01:03:55.826Z,15.40
2023-03-12T01:06:22.836Z,15.40
2023-03-12T01:08:49.926Z,15.40
2023-03-12T01:11:19.801Z,15.40
2023-03-12T01:13:46.984Z,15.30
2023-03-12T01:16:14.050Z,15.40
2023-03-12T01:18:41.112Z,15.30
2023-03-12T01:21:08.275Z,15.30
2023-03-12T01:23:35.285Z,15.30
2023-03-12T01:26:02.221Z,15.30
2023-03-12T01:28:29.416Z,15.30
2023-03-12T01:30:56.298Z,15.30
2023-03-12T01:33:23.408Z,15.30
2023-03-12T01:35:50.640Z,15.30
2023-03-12T01:38:19.137Z,15.20
2023-03-12T01:40:46.504Z,15.20
2023-03-12T01:43:34.573Z,15.20
2023-03-12T01:46:08.364Z,15.20
2023-03-12T01:48:40.302Z,15.20
2023-03-12T01:51:10.412Z,15.20
2023-03-12T01:53:38.478Z,15.20
2023-03-12T01:56:06.518Z,15.20
2023-03-12T01:58:37.291Z,15.10
2023-03-12T02:01:04.659Z,15.20
2023-03-12T02:03:33.252Z,15.10
2023-03-12T02:06:08.565Z,15.10
2023-03-12T02:08:38.022Z,15.10
2023-03-12T02:11:05.175Z,15.10
2023-03-12T02:13:35.229Z,15.10
2023-03-12T02:16:02.808Z,15.10
2023-03-12T02:18:30.722Z,15.10
2023-03-12T02:21:18.242Z,15.00
2023-03-12T02:24:17.153Z,15.00
2023-03-12T02:26:44.407Z,15.00
2023-03-12T02:29:12.766Z,15.00
2023-03-12T02:31:45.951Z,15.00
2023-03-12T02:34:13.448Z,15.00
2023-03-12T02:36:40.455Z,15.00
2023-03-12T02:39:08.069Z,15.00
2023-03-12T02:41:41.509Z,15.00
2023-03-12T02:44:13.390Z,14.90
2023-03-12T02:47:01.373Z,14.90
2023-03-12T02:49:32.016Z,14.90
2023-03-12T02:52:00.304Z,14.90
2023-03-12T02:54:27.836Z,14.90
2023-03-12T02:56:55.338Z,14.90
2023-03-12T02:59:26.609Z,14.90
2023-03-12T03:01:58.864Z,14.90
2023-03-12T03:04:27.946Z,14.90
2023-03-12T03:06:55.188Z,14.80
2023-03-12T03:09:22.505Z,14.80
2023-03-12T03:11:51.026Z,14.80
2023-03-12T03:14:18.707Z,14.80
2023-03-12T03:16:48.450Z,14.80
2023-03-12T03:19:15.402Z,14.80
2023-03-12T03:21:43.851Z,14.70
2023-03-12T03:24:14.088Z,14.70
2023-03-12T03:26:41.094Z,14.70
2023-03-12T03:29:10.795Z,14.70
2023-03-12T03:31:37.861Z,14.70
2023-03-12T03:34:04.919Z,14.70
2023-03-12T03:36:32.021Z,14.70
2023-03-12T03:39:05.131Z,14.70
2023-03-12T03:41:32.978Z,14.70
2023-03-12T03:44:00.023Z,14.70
2023-03-12T03:46:29.507Z,14.60
2023-03-12T03:49:03.428Z,14.60
2023-03-12T03:51:32.013Z,14.60
2023-03-12T03:54:04.525Z,14.50
2023-03-12T03:56:31.489Z,14.50
2023-03-12T03:59:02.040Z,14.50
2023-03-12T04:01:31.395Z,14.50
2023-03-12T04:03:59.707Z,14.40
2023-03-12T04:06:29.764Z,14.50
2023-03-12T04:08:58.346Z,14.50
2023-03-12T04:11:26.725Z,14.40
2023-03-12T04:13:55.301Z,14.40
2023-03-12T04:16:25.240Z,14.40
2023-03-12T04:18:53.896Z,14.40
2023-03-12T04:21:22.814Z,14.40
2023-03-12T04:23:51.107Z,14.30
2023-03-12T04:26:20.909Z,14.30
2023-03-12T04:28:48.104Z,14.30
2023-03-12T04:31:15.503Z,14.30
2023-03-12T04:33:51.441Z,14.30
2023-03-12T04:36:21.236Z,14.30
2023-03-12T04:38:50.172Z,14.30
2023-03-12T04:41:20.684Z,14.30
2023-03-12T04:43:55.662Z,14.20
2023-03-12T04:46:23.334Z,14.20
2023-03-12T04:48:51.043Z,14.20
2023-03-12T04:51:18.409Z,14.20
2023-03-12T04:53:45.453Z,14.20
2023-03-12T04:56:16.253Z,14.20
2023-03-12T04:58:44.679Z,14.10
2023-03-12T05:01:33.131Z,14.10
2023-03-12T05:04:03.443Z,14.10
2023-03-12T05:06:30.485Z,14.10
2023-03-12T05:08:57.525Z,14.10
2023-03-12T05:11:25.241Z,14.10
2023-03-12T05:13:52.157Z,14.10
2023-03-12T05:16:19.574Z,14.10
2023-03-12T05:18:47.338Z,14.00
2023-03-12T05:21:18.719Z,14.00
2023-03-12T05:23:46.909Z,14.00
2023-03-12T05:26:33.670Z,14.00
2023-03-12T05:29:11.375Z,14.00
2023-03-12T05:31:38.634Z,14.00
2023-03-12T05:34:07.017Z,13.90
2023-03-12T05:36:38.617Z,13.90
2023-03-12T05:39:06.010Z,13.90
2023-03-12T05:41:34.921Z,13.90
2023-03-12T05:44:13.661Z,13.90
2023-03-12T05:46:43.082Z,13.90
2023-03-12T05:49:10.937Z,13.90
2023-03-12T05:51:38.255Z,13.90
2023-03-12T05:54:06.633Z,13.80
2023-03-12T05:56:35.676Z,13.80
2023-03-12T05:59:03.426Z,13.80
2023-03-12T06:01:31.466Z,13.80
2023-03-12T06:04:01.793Z,13.80
2023-03-12T06:06:31.489Z,13.80
2023-03-12T06:08:58.571Z,13.80
2023-03-12T06:11:28.912Z,13.80
2023-03-12T06:13:56.853Z,13.80
2023-03-12T06:16:26.451Z,13.80
2023-03-12T06:18:55.557Z,13.80
2023-03-12T06:21:25.164Z,13.80
2023-03-12T06:23:53.195Z,13.80
2023-03-12T06:26:25.625Z,13.80
2023-03-12T06:28:54.283Z,13.80
2023-03-12T06:31:22.036Z,13.90
2023-03-12T06:33:49.208Z,13.90
2023-03-12T06:36:16.409Z,13.90
2023-03-12T06:38:43.424Z,13.90
2023-03-12T06:41:14.019Z,13.90
2023-03-12T06:43:43.534Z,13.90
2023-03-12T06:46:13.943Z,13.90
2023-03-12T06:48:41.559Z,13.90
2023-03-12T06:51:13.336Z,13.90
2023-03-12T06:53:42.362Z,13.90
2023-03-12T06:56:09.988Z,14.00
2023-03-12T06:58:36.999Z,14.00
2023-03-12T07:01:07.122Z,14.00
2023-03-12T07:03:34.447Z,14.00
2023-03-12T07:06:01.612Z,14.00
2023-03-12T07:08:32.253Z,14.00
2023-03-12T07:11:03.586Z,14.00
2023-03-12T07:13:30.757Z,14.00
2023-03-12T07:15:57.940Z,14.00
2023-03-12T07:18:25.237Z,14.00
2023-03-12T07:20:52.653Z,14.00
2023-03-12T07:23:19.830Z,14.00
2023-03-12T07:25:47.927Z,14.00
2023-03-12T07:28:16.466Z,14.00
2023-03-12T07:30:43.552Z,14.00
2023-03-12T07:33:12.449Z,14.00
2023-03-12T07:35:40.118Z,14.00
2023-03-12T07:38:08.244Z,14.00
2023-03-12T07:40:36.580Z,14.10
2023-03-12T07:43:11.009Z,14.10
2023-03-12T07:45:39.636Z,14.10
2023-03-12T07:48:07.640Z,14.10
2023-03-12T07:50:37.482Z,14.20
2023-03-12T07:53:05.808Z,14.20
2023-03-12T07:55:33.737Z,14.20
2023-03-12T07:58:01.025Z,14.20
2023-03-12T08:00:29.444Z,14.10
2023-03-12T08:02:56.959Z,14.10
2023-03-12T08:05:24.981Z,14.20
2023-03-12T08:07:52.803Z,14.20
2023-03-12T08:10:20.941Z,14.20
2023-03-12T08:12:49.268Z,14.20
2023-03-12T08:15:16.676Z,14.20
2023-03-12T08:17:44.101Z,14.30
2023-03-12T08:20:12.227Z,14.30
2023-03-12T08:22:40.163Z,14.30
2023-03-12T08:25:08.470Z,14.30
2023-03-12T08:27:35.713Z,14.30
2023-03-12T08:30:03.922Z,14.40
2023-03-12T08:32:30.898Z,14.40
2023-03-12T08:34:57.908Z,14.30
2023-03-12T08:37:24.891Z,14.30
2023-03-12T08:39:51.801Z,14.30
2023-03-12T08:42:18.879Z,14.30
2023-03-12T08:44:45.837Z,14.30
2023-03-12T08:47:12.783Z,14.30
2023-03-12T08:49:39.788Z,14.40
2023-03-12T08:52:06.699Z,14.40
2023-03-12T08:54:33.689Z,14.40
2023-03-12T08:57:01.888Z,14.50
2023-03-12T08:59:28.870Z,14.50
2023-03-12T09:01:55.835Z,14.50
2023-03-12T09:04:22.893Z,14.50
2023-03-12T09:06:49.822Z,14.60
2023-03-12T09:09:16.911Z,14.60
2023-03-12T09:11:43.886Z,14.60
2023-03-12T09:16:58.251Z,14.60
2023-03-12T09:19:25.319Z,14.60
2023-03-12T09:21:52.306Z,14.60
2023-03-12T09:24:19.341Z,14.60
2023-03-12T09:26:46.296Z,14.70
2023-03-12T09:29:16.390Z,14.70
2023-03-12T09:31:43.261Z,14.70
2023-03-12T09:34:10.182Z,14.80
2023-03-12T09:36:37.241Z,14.80
2023-03-12T09:39:04.304Z,14.70
2023-03-12T09:41:35.388Z,14.70
2023-03-12T09:44:05.034Z,14.70
2023-03-12T09:46:37.985Z,14.70
2023-03-12T09:49:18.619Z,14.60
2023-03-12T09:51:49.344Z,14.60
2023-03-12T09:54:29.455Z,14.70
2023-03-12T09:57:00.547Z,14.70
2023-03-12T09:59:30.318Z,14.70
2023-03-12T10:02:01.465Z,14.70
2023-03-12T10:04:37.781Z,14.80
2023-03-12T10:07:18.760Z,14.80
2023-03-12T10:10:01.943Z,14.90
2023-03-12T10:12:58.131Z,14.90
2023-03-12T10:15:50.784Z,14.90
2023-03-12T10:18:48.605Z,14.90
2023-03-12T10:21:47.308Z,15.00
2023-03-12T10:24:31.646Z,15.00
2023-03-12T10:26:59.163Z,15.10
2023-03-12T10:29:33.047Z,15.00
2023-03-12T10:32:12.725Z,15.10
2023-03-12T10:34:45.768Z,15.10
2023-03-12T10:37:22.490Z,15.10
2023-03-12T10:39:50.543Z,15.20
2023-03-12T10:42:20.871Z,15.20
2023-03-12T10:45:04.088Z,15.20
2023-03-12T10:47:36.991Z,15.20
2023-03-12T10:50:21.866Z,15.20
2023-03-12T10:52:52.001Z,15.20
2023-03-12T10:55:22.019Z,15.30
2023-03-12T10:57:49.745Z,15.30
2023-03-12T11:00:29.195Z,15.30
2023-03-12T11:03:04.812Z,15.30
2023-03-12T11:05:34.003Z,15.30
2023-03-12T11:08:18.444Z,15.40
2023-03-12T11:10:47.254Z,15.40
2023-03-12T11:13:41.563Z,15.40
2023-03-12T11:16:17.422Z,15.40
2023-03-12T11:19:05.471Z,15.40
2023-03-12T11:21:37.023Z,15.50
2023-03-12T11:24:08.353Z,15.50
2023-03-12T11:26:37.740Z,15.50
2023-03-12T11:29:24.309Z,15.60
2023-03-12T11:32:13.014Z,15.60
2023-03-12T11:34:40.260Z,15.60
2023-03-12T11:37:07.159Z,15.60
2023-03-12T11:40:13.446Z,15.70
2023-03-12T11:42:58.994Z,15.70
2023-03-12T11:45:52.533Z,15.70
2023-03-12T11:48:28.269Z,15.70
2023-03-12T11:50:55.969Z,15.70
2023-03-12T11:53:41.632Z,15.70
2023-03-12T11:56:30.352Z,15.70
2023-03-12T11:59:43.969Z,15.70
2023-03-12T12:02:21.863Z,15.70
2023-03-12T12:05:19.522Z,15.80
2023-03-12T12:08:21.784Z,15.80
2023-03-12T12:11:00.274Z,15.90
2023-03-12T12:13:40.734Z,15.90
2023-03-12T12:16:31.428Z,15.90
2023-03-12T12:19:05.714Z,15.90
2023-03-12T12:21:51.375Z,16.00
2023-03-12T12:24:42.562Z,16.00
2023-03-12T12:27:18.400Z,16.00
2023-03-12T12:29:56.603Z,16.00
2023-03-12T12:32:32.874Z,16.00
2023-03-12T12:35:22.355Z,16.00
2023-03-12T12:38:00.926Z,16.10
2023-03-12T12:40:39.825Z,16.10
2023-03-12T12:43:32.332Z,16.10
2023-03-12T12:46:04.260Z,16.10
2023-03-12T12:48:43.389Z,16.10
2023-03-12T12:51:11.576Z,16.20
2023-03-12T12:53:56.728Z,16.20
2023-03-12T12:56:23.701Z,16.30
2023-03-12T12:59:03.454Z,16.30
2023-03-12T13:01:32.562Z,16.30
2023-03-12T13:04:05.680Z,16.30
2023-03-12T13:07:01.987Z,16.40
2023-03-12T13:09:39.772Z,16.40
2023-03-12T13:12:28.219Z,16.40
2023-03-12T13:14:56.568Z,16.50
2023-03-12T13:17:31.305Z,16.50
2023-03-12T13:20:11.343Z,16.60
2023-03-12T13:22:58.240Z,16.60
2023-03-12T13:25:44.245Z,16.60
2023-03-12T13:28:23.036Z,16.70
2023-03-12T13:30:51.544Z,16.80
2023-03-12T13:33:35.717Z,16.80
2023-03-12T13:36:11.885Z,16.90
2023-03-12T13:39:01.588Z,16.90
2023-03-12T13:41:33.363Z,17.00
2023-03-12T13:44:21.360Z,17.10
2023-03-12T13:46:49.401Z,17.10
2023-03-12T13:49:18.725Z,17.30
2023-03-12T13:51:54.676Z,17.30
2023-03-12T13:54:26.120Z,17.40
2023-03-12T13:56:59.958Z,17.50
2023-03-12T13:59:28.645Z,17.50
2023-03-12T14:02:00.705Z,17.60
2023-03-12T14:04:35.798Z,17.70
2023-03-12T14:07:22.690Z,17.80
2023-03-12T14:10:11.364Z,17.90
2023-03-12T14:13:03.026Z,18.00
2023-03-12T14:15:54.052Z,18.20
2023-03-12T14:18:24.246Z,18.30
2023-03-12T14:20:58.130Z,18.50
2023-03-12T14:23:29.619Z,18.70
2023-03-12T14:26:02.336Z,18.80
2023-03-12T14:28:37.968Z,18.90
2023-03-12T14:31:14.351Z,19.20
2023-03-12T14:34:14.628Z,19.30
2023-03-12T14:37:01.245Z,19.50
2023-03-12T14:39:36.703Z,19.70
2023-03-12T14:42:05.392Z,19.90
2023-03-12T14:44:34.995Z,20.10
2023-03-12T14:47:07.375Z,20.20
2023-03-12T14:49:41.447Z,20.30
2023-03-12T14:52:11.437Z,20.40
2023-03-12T14:54:39.654Z,20.60
2023-03-12T14:57:15.503Z,20.90
2023-03-12T14:59:51.638Z,21.30
2023-03-12T15:02:19.991Z,21.90
2023-03-12T15:04:49.769Z,22.80
2023-03-12T15:07:23.157Z,23.40
2023-03-12T15:09:52.137Z,24.00
2023-03-12T15:12:18.992Z,24.50
2023-03-12T15:14:49.642Z,24.90
2023-03-12T15:17:22.028Z,25.40
2023-03-12T15:19:50.369Z,25.80
2023-03-12T15:22:21.073Z,26.30
2023-03-12T15:24:48.305Z,26.60
2023-03-12T15:27:28.173Z,26.90
2023-03-12T15:29:57.338Z,27.10
2023-03-12T15:32:25.849Z,27.20
2023-03-12T15:34:56.471Z,26.90
2023-03-12T15:37:41.013Z,26.40
2023-03-12T15:40:21.991Z,25.80
2023-03-12T15:42:49.756Z,25.10
2023-03-12T15:45:25.225Z,24.60
2023-03-12T15:47:54.535Z,24.10
2023-03-12T15:50:31.126Z,23.80
2023-03-12T15:52:59.257Z,23.60
2023-03-12T15:55:30.217Z,23.60
2023-03-12T15:57:58.682Z,23.90
2023-03-12T16:00:30.372Z,24.30
2023-03-12T16:03:03.983Z,24.80
2023-03-12T16:05:35.135Z,25.00
2023-03-12T16:08:17.946Z,25.20
2023-03-12T16:10:48.648Z,25.30
2023-03-12T16:13:20.075Z,25.30
2023-03-12T16:15:48.093Z,25.10
2023-03-12T16:18:18.093Z,25.00
2023-03-12T16:20:45.737Z,24.80
2023-03-12T16:23:13.122Z,24.60
2023-03-12T16:25:44.004Z,24.40
2023-03-12T16:28:14.329Z,24.40
2023-03-12T16:30:41.686Z,24.50
2023-03-12T16:33:13.020Z,24.50
2023-03-12T16:35:43.313Z,24.40
2023-03-12T16:38:10.281Z,24.10
2023-03-12T16:40:50.728Z,23.70
2023-03-12T16:43:23.144Z,23.30
2023-03-12T16:45:52.224Z,22.90
2023-03-12T16:48:21.819Z,22.50
2023-03-12T16:50:53.216Z,22.20
2023-03-12T16:53:20.848Z,22.00
2023-03-12T16:55:52.709Z,21.70
2023-03-12T16:58:21.165Z,21.50
2023-03-12T17:00:48.795Z,21.30
2023-03-12T17:03:40.021Z,21.20
2023-03-12T17:06:07.978Z,21.00
2023-03-12T17:08:36.008Z,20.80
2023-03-12T17:11:04.452Z,20.60
2023-03-12T17:13:31.451Z,20.50
2023-03-12T17:15:58.796Z,20.30
2023-03-12T17:18:25.756Z,20.10
2023-03-12T17:20:52.984Z,20.00
2023-03-12T17:23:20.127Z,19.90
2023-03-12T17:25:47.188Z,19.80
2023-03-12T17:28:15.486Z,19.70
2023-03-12T17:30:43.210Z,19.60
2023-03-12T17:33:13.873Z,19.40
2023-03-12T17:35:41.585Z,19.30
2023-03-12T17:38:08.767Z,19.30
2023-03-12T17:40:41.626Z,19.20
2023-03-12T17:43:08.660Z,19.10
2023-03-12T17:45:36.974Z,19.00
2023-03-12T17:48:04.269Z,19.00
2023-03-12T17:50:31.510Z,18.90
2023-03-12T17:52:58.743Z,18.80
2023-03-12T17:55:26.446Z,18.70
2023-03-12T17:57:53.673Z,18.70
2023-03-12T18:00:22.942Z,18.60
2023-03-12T18:02:50.376Z,18.50
2023-03-12T18:05:17.432Z,18.50
2023-03-12T18:07:46.642Z,18.40
2023-03-12T18:10:13.966Z,18.40
2023-03-12T18:12:50.931Z,18.40
2023-03-12T18:15:21.968Z,18.30
2023-03-12T18:17:59.809Z,18.20
2023-03-12T18:20:37.753Z,18.20
2023-03-12T18:23:05.948Z,18.10
2023-03-12T18:25:32.960Z,18.10
2023-03-12T18:27:59.875Z,18.00
2023-03-12T18:30:28.253Z,18.00
2023-03-12T18:32:55.390Z,18.00
2023-03-12T18:35:22.827Z,17.90
2023-03-12T18:37:51.836Z,17.80
2023-03-12T18:40:18.805Z,17.80
2023-03-12T18:42:45.810Z,17.80
2023-03-12T18:45:13.182Z,17.70
2023-03-12T18:47:40.183Z,17.70
2023-03-12T18:50:08.498Z,17.60
2023-03-12T18:52:35.970Z,17.60
2023-03-12T18:55:04.396Z,17.60
2023-03-12T18:57:31.677Z,17.50
2023-03-12T18:59:59.358Z,17.50
2023-03-12T19:02:26.533Z,17.50
2023-03-12T19:04:55.971Z,17.50
2023-03-12T19:07:23.240Z,17.40
2023-03-12T19:09:50.983Z,17.30
2023-03-12T19:12:17.896Z,17.40
2023-03-12T19:14:44.833Z,17.40
2023-03-12T19:17:13.549Z,17.30
2023-03-12T19:19:40.450Z,17.30
2023-03-12T19:22:07.444Z,17.20
2023-03-12T19:24:35.545Z,17.20
2023-03-12T19:27:02.505Z,17.20
2023-03-12T19:29:29.480Z,17.10
2023-03-12T19:31:56.414Z,17.10
2023-03-12T19:34:23.434Z,17.10
2023-03-12T19:36:50.360Z,17.00
2023-03-12T19:39:21.367Z,17.00
2023-03-12T19:41:49.325Z,16.90
2023-03-12T19:44:16.344Z,16.90
2023-03-12T19:46:43.378Z,16.90
2023-03-12T19:49:10.548Z,16.90
2023-03-12T19:51:40.173Z,16.80
2023-03-12T19:54:07.978Z,16.80
2023-03-12T19:56:36.686Z,16.80
2023-03-12T19:59:06.271Z,16.80
2023-03-12T20:01:33.828Z,16.70
2023-03-12T20:04:00.846Z,16.60
2023-03-12T20:06:27.779Z,16.70
2023-03-12T20:08:54.833Z,16.60
2023-03-12T20:11:21.942Z,16.60
2023-03-12T20:13:49.140Z,16.50
2023-03-12T20:16:17.345Z,16.50
2023-03-12T20:18:44.910Z,16.50
2023-03-12T20:21:12.390Z,16.50
2023-03-12T20:23:39.584Z,16.50
2023-03-12T20:26:07.549Z,16.40
2023-03-12T20:28:35.701Z,16.40
2023-03-12T20:31:14.588Z,16.40
2023-03-12T20:33:42.858Z,16.30
2023-03-12T20:36:13.037Z,16.30
2023-03-12T20:38:41.001Z,16.30
2023-03-12T20:41:14.848Z,16.30
2023-03-12T20:43:43.558Z,16.20
2023-03-12T20:46:11.841Z,16.20
2023-03-12T20:48:39.058Z,16.20
2023-03-12T20:51:06.233Z,16.20
2023-03-12T20:53:33.376Z,16.20
2023-03-12T20:56:00.577Z,16.10
2023-03-12T20:58:27.718Z,16.10
2023-03-12T21:00:55.679Z,16.10
2023-03-12T21:03:25.142Z,16.10
2023-03-12T21:05:53.988Z,16.10
2023-03-12T21:08:21.427Z,16.00
2023-03-12T21:10:48.732Z,16.00
2023-03-12T21:13:21.000Z,16.00
2023-03-12T21:15:48.748Z,16.00
2023-03-12T21:18:17.109Z,16.00
2023-03-12T21:20:44.678Z,16.00
2023-03-12T21:23:12.219Z,15.90
2023-03-12T21:25:41.322Z,15.90
2023-03-12T21:28:09.735Z,15.90
2023-03-12T21:30:38.088Z,15.80
2023-03-12T21:33:07.261Z,15.80
2023-03-12T21:35:34.383Z,15.80
2023-03-12T21:38:02.580Z,15.80
2023-03-12T21:40:29.614Z,15.70
2023-03-12T21:42:56.597Z,15.70
2023-03-12T21:45:23.518Z,15.70
2023-03-12T21:47:50.485Z,15.70
2023-03-12T21:50:17.544Z,15.70
2023-03-12T21:52:49.088Z,15.70
2023-03-12T21:55:17.144Z,15.60
2023-03-12T21:57:49.960Z,15.60
2023-03-12T22:00:17.266Z,15.60
2023-03-12T22:02:45.973Z,15.60
2023-03-12T22:05:14.103Z,15.60
2023-03-12T22:07:41.137Z,15.60
2023-03-12T22:10:11.817Z,15.60
2023-03-12T22:12:40.292Z,15.50
2023-03-12T22:15:08.215Z,15.50
2023-03-12T22:17:35.303Z,15.50
2023-03-12T22:20:02.289Z,15.50
2023-03-12T22:22:29.325Z,15.50
2023-03-12T22:24:58.776Z,15.50
2023-03-12T22:27:25.707Z,15.40
2023-03-12T22:29:53.114Z,15.50
2023-03-12T22:32:20.322Z,15.40
2023-03-12T22:34:47.832Z,15.40
2023-03-12T22:37:14.771Z,15.40
2023-03-12T22:39:43.310Z,15.40
2023-03-12T22:42:10.265Z,15.30
2023-03-12T22:44:42.856Z,15.30
2023-03-12T22:47:09.849Z,15.30
2023-03-12T22:49:36.779Z,15.30
2023-03-12T22:52:03.904Z,15.30
2023-03-12T22:54:33.963Z,15.30
2023-03-12T22:57:00.852Z,15.30
2023-03-12T22:59:27.758Z,15.20
2023-03-12T23:01:54.906Z,15.20
2023-03-12T23:04:21.980Z,15.20
2023-03-12T23:06:49.042Z,15.20
2023-03-12T23:09:15.987Z,15.20
2023-03-12T23:11:42.911Z,15.20
2023-03-12T23:14:09.873Z,15.20
2023-03-12T23:16:36.840Z,15.10
2023-03-12T23:19:03.837Z,15.10
2023-03-12T23:21:30.944Z,15.10
2023-03-12T23:23:59.292Z,15.10
2023-03-12T23:26:29.250Z,15.00
2023-03-12T23:28:58.409Z,15.00
2023-03-12T23:31:27.539Z,15.00
2023-03-12T23:33:55.063Z,15.00
2023-03-12T23:36:23.889Z,15.00
2023-03-12T23:38:51.874Z,15.00
2023-03-12T23:41:26.134Z,14.90
2023-03-12T23:43:53.433Z,14.90
2023-03-12T23:46:21.066Z,14.90
2023-03-12T23:48:48.819Z,14.90
2023-03-12T23:51:17.150Z,14.80
2023-03-12T23:53:46.769Z,14.90
2023-03-12T23:56:21.754Z,14.80
2023-03-12T23:58:51.365Z,14.80
